Time;durP1;ratioP1;P1;durP2;ratioP2;P2;SDS_P1;SDS_P2;PMS_P1;PMS_P2;Temp;Humidity;BMP_temperature;BMP_pressure;BME280_temperature;BME280_humidity;BME280_pressure;Samples;Min_cycle;Max_cycle;Signal;HPM_P1;HPM_P2
2021/07/12 00:01:35;;;;;;;15.90;13.45;;;19.30;86.20;;;;;;5052489;28;20029;-76
2021/07/12 00:04:01;;;;;;;16.10;13.27;;;19.30;86.40;;;;;;5052127;28;20036;-76
2021/07/12 00:06:26;;;;;;;16.27;14.10;;;19.30;86.60;;;;;;5051430;28;20506;-76
2021/07/12 00:08:52;;;;;;;16.27;13.85;;;19.20;86.70;;;;;;5053302;28;20037;-76
2021/07/12 00:11:18;;;;;;;17.25;14.30;;;19.20;86.80;;;;;;5053326;28;20040;-76
2021/07/12 00:13:43;;;;;;;17.20;14.55;;;19.20;86.80;;;;;;5051963;28;20507;-76
2021/07/12 00:16:09;;;;;;;17.23;14.75;;;19.20;86.80;;;;;;5053298;28;20060;-76
2021/07/12 00:18:35;;;;;;;16.83;13.98;;;19.10;86.80;;;;;;5053443;28;20033;-76
2021/07/12 00:21:00;;;;;;;19.95;15.77;;;19.10;87.50;;;;;;5051803;28;20029;-76
2021/07/12 00:23:26;;;;;;;19.48;15.52;;;19.10;86.90;;;;;;5032185;28;20025;-76
2021/07/12 00:25:51;;;;;;;17.00;15.05;;;19.10;87.00;;;;;;5032131;28;20033;-76
2021/07/12 00:28:17;;;;;;;17.90;14.68;;;19.10;87.10;;;;;;5032239;28;20084;-75
2021/07/12 00:30:43;;;;;;;16.45;14.70;;;19.00;87.10;;;;;;5033341;28;20035;-76
2021/07/12 00:33:09;;;;;;;16.77;14.38;;;19.00;87.20;;;;;;5032693;28;20067;-76
2021/07/12 00:35:34;;;;;;;15.90;13.27;;;18.90;87.20;;;;;;5033253;28;20029;-76
2021/07/12 00:38:00;;;;;;;18.67;14.93;;;18.90;87.30;;;;;;5033791;28;20440;-76
2021/07/12 00:40:28;;;;;;;16.85;14.35;;;19.00;87.40;;;;;;5051950;28;20476;-76
2021/07/12 00:42:53;;;;;;;18.25;15.30;;;18.90;87.40;;;;;;5032200;28;20029;-76
2021/07/12 00:45:25;;;;;;;17.85;14.25;;;18.90;87.50;;;;;;5032044;28;20509;-76
2021/07/12 00:47:53;;;;;;;16.13;13.63;;;18.90;87.50;;;;;;5033390;28;20030;-76
2021/07/12 00:50:20;;;;;;;16.77;13.95;;;18.90;87.50;;;;;;5033321;28;20488;-76
2021/07/12 00:52:47;;;;;;;17.20;13.95;;;18.90;87.50;;;;;;5032091;28;20500;-76
2021/07/12 00:55:18;;;;;;;17.35;13.93;;;18.80;87.40;;;;;;5033047;28;20446;-76
2021/07/12 00:57:44;;;;;;;17.50;14.65;;;18.80;87.50;;;;;;5033108;28;20028;-76
2021/07/12 01:00:11;;;;;;;17.25;14.55;;;18.80;87.40;;;;;;5032912;28;20124;-76
2021/07/12 01:02:37;;;;;;;17.33;14.13;;;18.80;87.50;;;;;;5033137;28;20029;-76
2021/07/12 01:05:08;;;;;;;17.02;13.80;;;18.80;87.50;;;;;;5031826;28;20036;-76
2021/07/12 01:07:34;;;;;;;17.17;14.00;;;18.80;87.70;;;;;;5034774;28;20032;-76
2021/07/12 01:10:00;;;;;;;18.40;14.70;;;18.80;87.70;;;;;;5035531;28;20029;-76
2021/07/12 01:12:54;;;;;;;22.85;14.98;;;18.70;87.80;;;;;;5050608;28;20089;-76
2021/07/12 01:15:23;;;;;;;;;;;18.70;88.10;;;;;;5048139;28;20099;-76
2021/07/12 01:18:07;;;;;;;15.63;12.55;;;18.70;88.10;;;;;;5051923;28;19905;-76
2021/07/12 01:20:36;;;;;;;;;;;18.70;87.90;;;;;;5055693;28;20039;-76
2021/07/12 01:23:23;;;;;;;14.57;11.70;;;18.60;87.90;;;;;;5054846;28;19954;-76
2021/07/12 01:26:18;;;;;;;15.73;12.75;;;18.60;87.80;;;;;;5056045;28;20377;-76
2021/07/12 01:29:02;;;;;;;17.98;13.82;;;18.60;88.00;;;;;;5055884;28;20032;-76
2021/07/12 01:31:47;;;;;;;18.67;13.10;;;18.50;88.10;;;;;;5056051;28;20115;-76
2021/07/12 01:34:44;;;;;;;18.55;13.35;;;18.60;88.20;;;;;;5056250;28;20025;-76
2021/07/12 01:37:18;;;;;;;18.23;13.02;;;18.50;88.20;;;;;;5043742;28;20018;-76
2021/07/12 01:39:49;;;;;;;16.70;13.95;;;18.50;88.20;;;;;;5036057;28;20029;-76
2021/07/12 01:42:46;;;;;;;16.27;13.75;;;18.50;88.40;;;;;;5036376;28;20029;-76
2021/07/12 01:45:16;;;;;;;16.83;13.98;;;18.50;88.40;;;;;;5045678;28;20041;-76
2021/07/12 01:47:45;;;;;;;16.95;13.57;;;18.40;88.50;;;;;;5056014;28;20036;-76
2021/07/12 01:50:50;;;;;;;17.40;13.70;;;18.40;88.60;;;;;;5055742;28;20025;-76
2021/07/12 01:53:34;;;;;;;17.83;13.98;;;18.40;88.80;;;;;;5054706;28;20040;-76
2021/07/12 01:56:25;;;;;;;17.85;14.10;;;18.40;88.90;;;;;;5055832;28;20021;-76
2021/07/12 01:59:06;;;;;;;18.55;14.65;;;18.40;89.00;;;;;;5056061;28;20032;-76
2021/07/12 02:01:34;;;;;;;17.92;14.70;;;18.30;89.00;;;;;;5050316;28;20037;-76
2021/07/12 02:04:03;;;;;;;18.73;14.95;;;18.30;89.10;;;;;;5035648;28;20034;-76
2021/07/12 02:06:34;;;;;;;18.08;15.05;;;18.30;89.30;;;;;;5035696;28;20029;-76
2021/07/12 02:09:00;;;;;;;18.63;14.95;;;18.20;89.40;;;;;;5035473;28;20022;-76
2021/07/12 02:11:27;;;;;;;18.83;15.43;;;18.30;89.50;;;;;;5034060;28;20034;-76
2021/07/12 02:13:52;;;;;;;19.23;16.35;;;18.20;89.60;;;;;;5034225;28;20041;-76
2021/07/12 02:16:20;;;;;;;19.08;15.98;;;18.20;90.00;;;;;;5033878;28;20041;-76
2021/07/12 02:18:47;;;;;;;18.77;16.08;;;18.20;90.10;;;;;;5034193;28;20139;-76
2021/07/12 02:21:14;;;;;;;19.52;16.70;;;18.20;90.30;;;;;;5033646;28;20056;-76
2021/07/12 02:23:42;;;;;;;20.10;17.13;;;18.20;90.40;;;;;;5035198;28;20034;-76
2021/07/12 02:26:11;;;;;;;21.50;16.35;;;18.10;90.50;;;;;;5017357;28;20032;-76
2021/07/12 02:28:41;;;;;;;20.80;17.30;;;18.10;90.60;;;;;;5035105;28;20025;-76
2021/07/12 02:31:08;;;;;;;19.42;16.55;;;18.10;90.70;;;;;;5035018;28;20022;-76
2021/07/12 02:33:34;;;;;;;20.00;16.63;;;18.10;90.70;;;;;;5035285;28;20026;-76
2021/07/12 02:36:02;;;;;;;23.90;16.50;;;18.10;90.80;;;;;;5034791;28;20466;-76
2021/07/12 02:38:28;;;;;;;19.10;16.48;;;18.10;90.80;;;;;;5034586;28;20026;-76
2021/07/12 02:40:55;;;;;;;19.42;15.82;;;18.00;90.70;;;;;;5033479;28;20036;-76
2021/07/12 02:43:22;;;;;;;19.80;16.10;;;18.00;90.70;;;;;;5033475;28;20385;-76
2021/07/12 02:45:49;;;;;;;20.35;15.75;;;18.00;90.70;;;;;;5016514;28;20096;-76
2021/07/12 02:48:15;;;;;;;23.98;18.23;;;17.90;90.70;;;;;;5034398;28;20025;-76
2021/07/12 02:50:42;;;;;;;20.27;16.40;;;18.00;90.80;;;;;;5034299;28;20075;-76
2021/07/12 02:53:20;;;;;;;24.80;17.98;;;18.00;90.80;;;;;;5034314;28;20458;-76
2021/07/12 02:55:46;;;;;;;18.35;15.63;;;17.90;90.80;;;;;;5034894;28;20029;-76
2021/07/12 02:58:11;;;;;;;22.05;17.90;;;17.90;90.80;;;;;;5034810;28;20034;-76
2021/07/12 03:00:37;;;;;;;22.17;16.98;;;17.90;90.80;;;;;;5033099;28;20037;-76
2021/07/12 03:03:04;;;;;;;20.67;17.48;;;17.80;90.90;;;;;;5034135;28;20074;-76
2021/07/12 03:05:30;;;;;;;20.63;17.13;;;17.80;90.90;;;;;;5034179;28;20025;-76
2021/07/12 03:08:17;;;;;;;20.73;17.00;;;17.80;90.90;;;;;;5034259;28;20366;-76
2021/07/12 03:10:56;;;;;;;23.30;18.05;;;17.80;91.00;;;;;;5034254;28;20030;-76
2021/07/12 03:13:34;;;;;;;18.55;15.35;;;17.70;91.00;;;;;;5034219;28;20477;-76
2021/07/12 03:16:01;;;;;;;21.15;17.65;;;17.80;91.30;;;;;;5033837;28;20032;-76
2021/07/12 03:18:30;;;;;;;19.85;16.80;;;17.70;91.00;;;;;;5034409;28;20025;-76
2021/07/12 03:21:02;;;;;;;23.45;16.88;;;17.70;91.10;;;;;;5032942;28;20389;-76
2021/07/12 03:23:32;;;;;;;21.95;17.50;;;17.70;91.10;;;;;;5036455;28;20026;-76
2021/07/12 03:26:01;;;;;;;21.23;16.40;;;17.70;91.20;;;;;;5052635;28;20467;-76
2021/07/12 03:28:27;;;;;;;23.85;18.35;;;17.60;91.20;;;;;;5054226;28;20481;-76
2021/07/12 03:30:54;;;;;;;20.45;18.25;;;17.60;91.20;;;;;;5036232;28;20059;-76
2021/07/12 03:33:22;;;;;;;23.08;17.98;;;17.60;91.30;;;;;;5036197;28;20115;-76
2021/07/12 03:35:49;;;;;;;24.02;18.77;;;17.60;91.30;;;;;;5052812;28;20025;-76
2021/07/12 03:38:18;;;;;;;23.40;19.08;;;17.50;91.30;;;;;;5053683;28;20032;-76
2021/07/12 03:40:44;;;;;;;24.20;18.70;;;17.60;91.40;;;;;;5044548;28;20393;-76
2021/07/12 03:43:12;;;;;;;27.52;20.27;;;17.50;91.40;;;;;;5033972;28;20018;-76
2021/07/12 03:45:42;;;;;;;22.42;18.42;;;17.50;91.40;;;;;;5032476;28;20060;-76
2021/07/12 03:48:08;;;;;;;25.42;20.17;;;17.50;91.40;;;;;;5015987;28;20448;-76
2021/07/12 03:50:35;;;;;;;25.10;19.10;;;17.50;91.40;;;;;;5033579;28;20036;-76
2021/07/12 03:53:02;;;;;;;23.33;19.58;;;17.50;91.50;;;;;;5032643;28;20036;-76
2021/07/12 03:55:30;;;;;;;23.40;18.15;;;17.50;91.60;;;;;;5033818;28;20025;-76
2021/07/12 03:57:56;;;;;;;23.45;18.77;;;17.50;91.60;;;;;;5048644;28;20033;-76
2021/07/12 04:00:25;;;;;;;23.52;19.40;;;17.50;91.60;;;;;;5051565;28;20032;-76
2021/07/12 04:02:51;;;;;;;22.40;18.73;;;17.40;91.70;;;;;;5033100;28;20075;-76
2021/07/12 04:05:19;;;;;;;23.13;18.67;;;17.40;91.70;;;;;;5033380;28;20112;-76
2021/07/12 04:07:45;;;;;;;23.33;18.83;;;17.40;91.80;;;;;;5033020;28;20033;-76
2021/07/12 04:10:13;;;;;;;22.25;18.88;;;17.40;91.80;;;;;;5033751;28;20136;-76
2021/07/12 04:12:41;;;;;;;24.58;20.35;;;17.40;91.80;;;;;;5033675;28;20029;-76
2021/07/12 04:15:08;;;;;;;23.52;19.20;;;17.40;91.90;;;;;;5033322;28;20469;-76
2021/07/12 04:17:34;;;;;;;26.10;19.83;;;17.50;91.90;;;;;;5034420;28;20043;-76
2021/07/12 04:20:02;;;;;;;25.50;20.33;;;17.50;92.00;;;;;;5051609;28;20025;-76
2021/07/12 04:22:28;;;;;;;27.50;21.30;;;17.50;92.20;;;;;;5052793;28;20053;-76
2021/07/12 04:24:53;;;;;;;25.63;19.45;;;17.50;92.00;;;;;;5053220;28;20110;-76
2021/07/12 04:27:19;;;;;;;25.42;20.27;;;17.50;91.90;;;;;;5051763;28;20017;-76
2021/07/12 04:29:45;;;;;;;24.20;19.40;;;17.50;92.30;;;;;;5053228;28;20100;-76
2021/07/12 04:32:11;;;;;;;24.23;19.10;;;17.50;92.00;;;;;;5052751;28;20029;-76
2021/07/12 04:34:37;;;;;;;23.35;18.75;;;17.50;92.00;;;;;;5051431;28;20136;-76
2021/07/12 04:37:03;;;;;;;24.27;18.38;;;17.60;92.10;;;;;;5035146;28;20048;-77
2021/07/12 04:39:29;;;;;;;25.27;20.90;;;17.60;92.10;;;;;;5042714;28;20037;-77
2021/07/12 04:41:55;;;;;;;26.13;20.67;;;17.60;92.20;;;;;;5034148;28;20029;-77
2021/07/12 04:44:22;;;;;;;25.15;20.33;;;17.60;92.20;;;;;;5036644;28;20041;-77
2021/07/12 04:46:51;;;;;;;24.48;19.90;;;17.70;92.20;;;;;;5036114;28;20400;-77
2021/07/12 04:49:17;;;;;;;23.02;19.45;;;17.70;92.20;;;;;;5035900;28;20389;-76
2021/07/12 04:51:43;;;;;;;25.55;20.42;;;17.80;92.30;;;;;;5037309;28;20458;-76
2021/07/12 04:54:09;;;;;;;25.73;21.08;;;17.80;92.30;;;;;;5039702;28;20025;-76
2021/07/12 04:56:35;;;;;;;25.48;21.73;;;17.80;92.30;;;;;;5037085;28;20038;-76
2021/07/12 04:59:07;;;;;;;28.60;21.88;;;17.90;92.40;;;;;;5036804;28;20074;-76
2021/07/12 05:01:33;;;;;;;30.15;20.83;;;17.90;92.50;;;;;;5051462;28;20025;-76
2021/07/12 05:04:00;;;;;;;30.00;23.17;;;18.00;92.50;;;;;;5055241;28;20028;-75
2021/07/12 05:06:27;;;;;;;27.42;22.85;;;18.00;92.50;;;;;;5072765;28;20020;-76
2021/07/12 05:08:52;;;;;;;27.35;22.67;;;18.10;92.60;;;;;;5060646;28;20025;-76
2021/07/12 05:11:18;;;;;;;27.30;22.92;;;18.10;92.60;;;;;;5037204;28;20396;-75
2021/07/12 05:13:44;;;;;;;27.58;22.77;;;18.10;92.60;;;;;;5018033;28;20489;-76
2021/07/12 05:16:11;;;;;;;26.75;22.50;;;18.20;92.60;;;;;;5036126;28;20476;-75
2021/07/12 05:18:38;;;;;;;28.17;22.80;;;18.20;92.60;;;;;;5035033;28;20068;-76
2021/07/12 05:21:04;;;;;;;25.77;23.00;;;18.30;92.60;;;;;;5039025;28;20095;-76
2021/07/12 05:23:30;;;;;;;28.88;23.88;;;18.30;92.60;;;;;;5042013;28;20103;-76
2021/07/12 05:25:56;;;;;;;27.55;22.73;;;18.40;92.60;;;;;;5055532;28;20061;-76
2021/07/12 05:28:22;;;;;;;30.13;24.25;;;18.40;92.60;;;;;;5051537;28;20021;-76
2021/07/12 05:30:48;;;;;;;28.55;23.73;;;18.50;92.50;;;;;;5053461;28;20052;-76
2021/07/12 05:33:13;;;;;;;26.58;22.85;;;18.50;92.50;;;;;;5029804;28;20481;-76
2021/07/12 05:35:39;;;;;;;27.73;23.75;;;18.60;92.50;;;;;;5039520;28;20072;-76
2021/07/12 05:38:05;;;;;;;28.67;24.45;;;18.60;92.40;;;;;;5034998;28;20025;-77
2021/07/12 05:40:31;;;;;;;30.10;23.67;;;18.60;92.40;;;;;;5053522;28;20040;-77
2021/07/12 05:42:57;;;;;;;31.20;23.95;;;18.70;92.40;;;;;;5018746;28;20053;-76
2021/07/12 05:45:23;;;;;;;33.03;24.83;;;18.70;92.40;;;;;;5034944;28;20089;-76
2021/07/12 05:47:48;;;;;;;27.75;23.63;;;18.80;92.40;;;;;;5045282;28;20030;-76
2021/07/12 05:50:15;;;;;;;29.10;23.48;;;18.80;92.50;;;;;;5045922;28;20044;-76
2021/07/12 05:52:41;;;;;;;28.77;24.10;;;18.80;92.40;;;;;;5036305;28;20026;-77
2021/07/12 05:55:07;;;;;;;27.17;22.75;;;18.90;92.40;;;;;;5041164;28;20017;-76
2021/07/12 05:57:33;;;;;;;28.67;23.33;;;18.90;92.40;;;;;;5038282;28;20039;-77
2021/07/12 05:59:59;;;;;;;29.50;25.17;;;19.00;92.40;;;;;;5049093;28;20104;-77
2021/07/12 06:02:24;;;;;;;28.60;24.10;;;19.00;92.40;;;;;;5048692;28;20047;-77
2021/07/12 06:04:50;;;;;;;28.80;22.73;;;19.10;92.30;;;;;;5055872;28;20025;-78
2021/07/12 06:07:16;;;;;;;26.02;22.58;;;19.10;92.30;;;;;;5034991;28;20052;-76
2021/07/12 06:09:41;;;;;;;26.70;22.15;;;19.20;92.30;;;;;;5020083;28;20034;-76
2021/07/12 06:12:07;;;;;;;27.70;22.17;;;19.20;92.20;;;;;;5035382;28;20032;-76
2021/07/12 06:14:33;;;;;;;25.42;21.52;;;19.30;92.20;;;;;;5043675;28;20067;-77
2021/07/12 06:16:58;;;;;;;24.17;20.95;;;19.30;92.10;;;;;;5041668;28;20489;-77
2021/07/12 06:19:24;;;;;;;22.90;20.23;;;19.40;92.30;;;;;;5051024;28;20089;-77
2021/07/12 06:21:50;;;;;;;25.33;20.65;;;19.50;91.90;;;;;;5075276;28;20483;-77
2021/07/12 06:24:16;;;;;;;23.90;20.13;;;19.50;91.80;;;;;;5070330;28;20017;-77
2021/07/12 06:26:41;;;;;;;25.15;20.38;;;19.50;91.70;;;;;;5049708;28;20030;-77
2021/07/12 06:29:07;;;;;;;23.33;20.30;;;19.60;91.60;;;;;;5048400;28;20032;-77
2021/07/12 06:31:33;;;;;;;21.88;19.38;;;19.70;91.50;;;;;;5046069;28;20040;-77
2021/07/12 06:33:59;;;;;;;23.20;20.10;;;19.70;91.30;;;;;;5047476;28;20078;-76
2021/07/12 06:36:25;;;;;;;23.13;19.50;;;19.70;91.20;;;;;;5054310;28;20076;-77
2021/07/12 06:38:50;;;;;;;26.63;21.15;;;19.80;91.20;;;;;;5053894;28;20374;-76
2021/07/12 06:41:16;;;;;;;24.20;20.58;;;19.90;91.00;;;;;;5053651;28;20363;-76
2021/07/12 06:43:43;;;;;;;25.52;21.15;;;19.90;91.20;;;;;;5053903;28;20032;-76
2021/07/12 06:46:08;;;;;;;22.60;19.52;;;19.90;90.90;;;;;;5054434;28;20127;-76
2021/07/12 06:48:34;;;;;;;20.55;18.25;;;20.00;90.80;;;;;;5054575;28;20064;-76
2021/07/12 06:51:00;;;;;;;21.90;18.88;;;20.10;90.70;;;;;;5037256;28;20057;-78
2021/07/12 06:53:26;;;;;;;22.35;18.13;;;20.20;90.60;;;;;;5054728;28;20409;-77
2021/07/12 06:55:52;;;;;;;20.63;18.00;;;20.20;90.40;;;;;;5036610;28;20124;-78
2021/07/12 06:58:17;;;;;;;20.13;17.92;;;20.20;90.30;;;;;;5036743;28;20021;-77
2021/07/12 07:00:43;;;;;;;19.75;17.63;;;20.30;90.10;;;;;;5053200;28;20124;-77
2021/07/12 07:03:09;;;;;;;21.88;17.85;;;20.30;89.90;;;;;;5053603;28;20457;-76
2021/07/12 07:05:35;;;;;;;22.13;19.45;;;20.40;89.50;;;;;;5054187;28;20033;-77
2021/07/12 07:08:02;;;;;;;21.40;17.42;;;20.40;89.20;;;;;;5054137;28;20107;-76
2021/07/12 07:10:27;;;;;;;18.95;16.80;;;20.40;89.10;;;;;;5053633;28;20033;-76
2021/07/12 07:12:53;;;;;;;21.63;17.48;;;20.50;89.00;;;;;;5060721;28;20060;-76
2021/07/12 07:15:19;;;;;;;20.95;17.45;;;20.50;88.90;;;;;;5045204;28;20508;-76
2021/07/12 07:17:45;;;;;;;20.15;16.38;;;20.50;88.70;;;;;;5042468;28;20133;-76
2021/07/12 07:20:11;;;;;;;20.20;17.58;;;20.50;88.50;;;;;;5040156;28;20053;-77
2021/07/12 07:22:37;;;;;;;19.67;17.30;;;20.60;88.60;;;;;;5036977;28;20033;-77
2021/07/12 07:25:04;;;;;;;17.60;15.75;;;20.60;88.40;;;;;;5041610;28;20373;-76
2021/07/12 07:27:31;;;;;;;18.10;15.15;;;20.70;88.30;;;;;;5032809;28;20121;-76
2021/07/12 07:29:57;;;;;;;18.02;15.52;;;20.70;88.10;;;;;;5033520;28;20032;-76
2021/07/12 07:32:22;;;;;;;18.45;15.63;;;20.80;88.00;;;;;;5033038;28;20026;-76
2021/07/12 07:34:48;;;;;;;17.00;15.05;;;20.90;87.80;;;;;;5034278;28;20033;-76
2021/07/12 07:37:14;;;;;;;17.15;15.15;;;21.00;87.70;;;;;;5033265;28;20112;-76
2021/07/12 07:39:40;;;;;;;19.05;15.73;;;21.10;87.50;;;;;;5034215;28;20037;-76
2021/07/12 07:42:06;;;;;;;15.43;13.68;;;21.10;87.20;;;;;;5033049;28;20033;-77
2021/07/12 07:44:33;;;;;;;16.40;13.98;;;21.20;86.80;;;;;;5032594;28;20094;-74
2021/07/12 07:46:59;;;;;;;18.92;13.80;;;21.20;86.50;;;;;;5033846;28;20033;-74
2021/07/12 07:49:25;;;;;;;16.60;12.80;;;21.20;85.90;;;;;;5032775;28;20021;-74
2021/07/12 07:51:50;;;;;;;17.17;13.10;;;21.30;85.60;;;;;;5033938;28;20108;-74
2021/07/12 07:54:16;;;;;;;14.98;12.27;;;21.40;85.30;;;;;;5033736;28;20527;-74
2021/07/12 07:56:42;;;;;;;17.15;13.48;;;21.40;84.90;;;;;;5047622;28;20031;-74
2021/07/12 07:59:09;;;;;;;15.65;12.20;;;21.50;84.50;;;;;;5034220;28;20033;-74
2021/07/12 08:01:35;;;;;;;12.77;11.23;;;21.50;84.20;;;;;;5038844;28;20022;-74
2021/07/12 08:04:01;;;;;;;17.17;13.65;;;21.60;83.90;;;;;;5042765;28;20034;-74
2021/07/12 08:06:27;;;;;;;15.48;12.10;;;21.60;83.40;;;;;;5039638;28;20379;-75
2021/07/12 08:08:53;;;;;;;12.30;10.90;;;21.70;82.90;;;;;;5052820;28;20027;-74
2021/07/12 08:11:18;;;;;;;14.18;11.75;;;21.80;82.70;;;;;;5073660;28;20485;-74
2021/07/12 08:13:45;;;;;;;12.55;11.13;;;21.80;82.50;;;;;;5072282;28;20020;-74
2021/07/12 08:16:11;;;;;;;12.88;10.20;;;21.90;82.20;;;;;;5071406;28;20512;-73
2021/07/12 08:18:37;;;;;;;14.18;11.68;;;22.00;82.00;;;;;;5067437;28;20021;-74
2021/07/12 08:21:03;;;;;;;13.25;9.98;;;22.00;81.80;;;;;;5058362;28;20469;-73
2021/07/12 08:23:29;;;;;;;13.73;10.50;;;22.10;81.60;;;;;;5053585;28;20032;-74
2021/07/12 08:25:55;;;;;;;11.18;8.60;;;22.10;81.30;;;;;;5051992;28;20021;-74
2021/07/12 08:28:24;;;;;;;11.60;8.38;;;22.20;80.80;;;;;;5035478;28;20097;-74
2021/07/12 08:30:51;;;;;;;12.75;9.65;;;22.30;80.40;;;;;;5052045;28;20465;-75
2021/07/12 08:33:17;;;;;;;12.85;9.85;;;22.30;79.70;;;;;;5052277;28;20048;-74
2021/07/12 08:35:43;;;;;;;10.57;8.05;;;22.40;79.40;;;;;;5035247;28;20524;-75
2021/07/12 08:38:08;;;;;;;12.13;7.70;;;22.40;79.10;;;;;;5052025;28;20063;-75
2021/07/12 08:40:34;;;;;;;10.52;7.03;;;22.40;78.00;;;;;;5052448;28;20036;-74
2021/07/12 08:43:00;;;;;;;10.15;6.88;;;22.50;78.60;;;;;;5051981;28;20021;-75
2021/07/12 08:45:27;;;;;;;11.57;6.35;;;22.60;77.90;;;;;;5051599;28;20044;-76
2021/07/12 08:47:54;;;;;;;10.98;7.10;;;22.60;77.70;;;;;;5051854;28;20026;-75
2021/07/12 08:50:21;;;;;;;11.02;7.13;;;22.70;76.80;;;;;;5052098;28;20025;-74
2021/07/12 08:52:49;;;;;;;8.90;6.38;;;22.80;76.60;;;;;;5051573;28;20395;-74
2021/07/12 08:55:15;;;;;;;11.55;6.78;;;22.80;76.50;;;;;;5051987;28;20051;-75
2021/07/12 08:58:19;;;;;;;10.02;7.47;;;22.90;76.20;;;;;;5035036;28;20025;-76
2021/07/12 09:00:52;;;;;;;12.18;6.70;;;23.00;75.30;;;;;;5051786;28;20496;-75
2021/07/12 09:03:20;;;;;;;8.15;5.72;;;23.00;75.10;;;;;;5053035;28;20392;-75
2021/07/12 09:06:11;;;;;;;7.90;5.53;;;23.10;75.60;;;;;;5055911;28;20015;-75
2021/07/12 09:08:39;;;;;;;9.32;5.60;;;23.20;74.40;;;;;;5071758;28;20070;-76
2021/07/12 09:11:15;;;;;;;11.30;5.82;;;23.30;74.30;;;;;;5071657;28;20028;-74
2021/07/12 09:13:45;;;;;;;9.43;5.75;;;23.40;73.70;;;;;;5072962;28;20029;-73
2021/07/12 09:16:35;;;;;;;8.40;6.05;;;23.50;73.50;;;;;;5071523;28;20429;-76
2021/07/12 09:19:06;;;;;;;8.25;5.40;;;23.60;73.20;;;;;;5072820;28;20037;-75
2021/07/12 09:21:58;;;;;;;7.93;5.65;;;23.60;72.50;;;;;;5071337;28;20456;-75
2021/07/12 09:24:26;;;;;;;7.70;5.05;;;23.70;71.40;;;;;;5071303;28;20078;-75
2021/07/12 09:26:55;;;;;;;8.45;5.47;;;23.80;71.30;;;;;;5072221;28;20025;-76
2021/07/12 09:29:37;;;;;;;7.03;5.07;;;23.90;70.80;;;;;;5076360;28;20013;-76
2021/07/12 09:32:06;;;;;;;6.90;4.70;;;24.00;68.80;;;;;;5074971;28;20033;-75
2021/07/12 09:34:32;;;;;;;9.57;5.80;;;24.00;68.90;;;;;;5076555;28;20048;-76
2021/07/12 09:36:58;;;;;;;6.78;4.90;;;24.10;68.60;;;;;;5075164;28;20032;-74
2021/07/12 09:39:28;;;;;;;5.50;3.90;;;24.20;68.30;;;;;;5056272;28;20078;-75
2021/07/12 09:41:58;;;;;;;7.38;4.20;;;24.30;68.20;;;;;;5056113;28;20021;-74
2021/07/12 09:44:27;;;;;;;6.60;3.80;;;24.40;67.20;;;;;;5054711;28;20350;-75
2021/07/12 09:46:55;;;;;;;5.68;3.83;;;24.50;66.40;;;;;;5054690;28;20029;-76
2021/07/12 09:49:23;;;;;;;6.90;4.07;;;24.50;65.80;;;;;;5054648;28;20033;-75
2021/07/12 09:51:56;;;;;;;5.97;3.92;;;24.60;65.00;;;;;;5056542;28;20485;-76
2021/07/12 09:54:29;;;;;;;6.07;3.88;;;24.70;65.20;;;;;;5056181;28;20040;-75
2021/07/12 09:56:56;;;;;;;5.38;3.70;;;24.80;65.30;;;;;;5054726;28;20111;-74
2021/07/12 09:59:23;;;;;;;4.95;3.20;;;24.90;65.30;;;;;;5055587;28;20033;-75
2021/07/12 10:01:53;;;;;;;6.07;3.40;;;25.00;64.70;;;;;;5061914;28;20032;-74
2021/07/12 10:04:24;;;;;;;5.45;4.07;;;25.10;63.50;;;;;;5058356;28;20438;-75
2021/07/12 10:06:51;;;;;;;7.75;3.65;;;25.20;62.90;;;;;;5068935;28;20016;-76
2021/07/12 10:09:22;;;;;;;4.93;3.30;;;25.40;62.50;;;;;;5074812;28;20465;-76
2021/07/12 10:11:50;;;;;;;5.88;3.60;;;25.40;62.20;;;;;;5075666;28;20534;-75
2021/07/12 10:14:17;;;;;;;6.50;3.95;;;25.50;61.90;;;;;;5074595;28;20491;-74
2021/07/12 10:16:43;;;;;;;5.60;3.22;;;25.50;61.10;;;;;;5071611;28;20032;-76
2021/07/12 10:19:09;;;;;;;5.78;3.22;;;25.60;60.00;;;;;;5048759;28;20029;-78
2021/07/12 10:22:01;;;;;;;5.10;3.50;;;25.60;59.00;;;;;;5032657;28;20021;-76
2021/07/12 10:24:36;;;;;;;5.60;3.95;;;25.60;59.10;;;;;;5048191;28;20028;-77
2021/07/12 10:27:02;;;;;;;9.48;3.80;;;25.70;59.00;;;;;;5064899;28;20032;-76
2021/07/12 10:29:34;;;;;;;6.25;4.60;;;25.70;58.60;;;;;;5057493;28;20048;-77
2021/07/12 10:32:03;;;;;;;6.30;3.80;;;25.80;59.10;;;;;;5063512;28;20427;-77
2021/07/12 10:34:35;;;;;;;6.13;3.10;;;25.90;59.20;;;;;;5066042;28;20029;-76
2021/07/12 10:37:05;;;;;;;6.22;3.47;;;25.90;58.70;;;;;;5063425;28;20353;-76
2021/07/12 10:39:59;;;;;;;5.22;2.60;;;26.10;58.40;;;;;;5059480;28;20535;-77
2021/07/12 10:42:43;;;;;;;4.88;2.97;;;26.30;57.40;;;;;;5053163;28;20025;-76
2021/07/12 10:45:12;;;;;;;;;;;26.60;57.50;;;;;;5052451;28;20041;-76
2021/07/12 10:47:46;;;;;;;4.13;2.97;;;26.70;57.50;;;;;;5060610;28;19915;-76
2021/07/12 10:50:40;;;;;;;3.95;2.70;;;27.10;57.30;;;;;;5066043;28;20124;-77
2021/07/12 10:53:14;;;;;;;5.00;2.88;;;27.60;56.50;;;;;;5065452;28;20099;-75
2021/07/12 10:56:03;;;;;;;6.22;2.80;;;28.10;56.60;;;;;;5073176;28;20036;-77
2021/07/12 10:58:32;;;;;;;3.78;2.00;;;28.50;56.40;;;;;;5073270;28;20023;-78
2021/07/12 11:01:00;;;;;;;5.45;2.60;;;28.70;56.30;;;;;;5073380;28;20031;-76
2021/07/12 11:03:40;;;;;;;5.03;3.13;;;28.80;56.10;;;;;;5073124;28;20059;-77
2021/07/12 11:06:08;;;;;;;3.50;2.40;;;28.80;55.00;;;;;;5067906;28;20028;-79
2021/07/12 11:08:54;;;;;;;3.83;2.17;;;29.00;55.00;;;;;;5072952;28;20073;-77
2021/07/12 11:11:19;;;;;;;3.65;2.40;;;29.00;53.30;;;;;;5073305;28;20423;-77
2021/07/12 11:13:58;;;;;;;4.63;2.53;;;29.10;53.60;;;;;;5072774;28;20024;-77
2021/07/12 11:16:34;;;;;;;3.58;2.20;;;29.20;53.30;;;;;;5066593;28;20392;-75
2021/07/12 11:19:17;;;;;;;3.45;2.30;;;29.30;53.10;;;;;;5054432;28;20107;-76
2021/07/12 11:21:42;;;;;;;3.28;1.60;;;29.40;52.10;;;;;;5054544;28;20033;-77
2021/07/12 11:24:08;;;;;;;3.05;1.85;;;29.50;52.20;;;;;;5063759;28;20368;-76
2021/07/12 11:26:34;;;;;;;3.45;1.92;;;29.60;51.40;;;;;;5074359;28;20365;-77
2021/07/12 11:29:10;;;;;;;2.95;1.85;;;29.70;51.00;;;;;;5072978;28;20028;-78
2021/07/12 11:31:52;;;;;;;4.10;2.80;;;29.80;50.60;;;;;;5074059;28;20032;-77
2021/07/12 11:34:30;;;;;;;4.55;2.38;;;29.80;50.40;;;;;;5072458;28;20028;-79
2021/07/12 11:37:03;;;;;;;4.43;2.97;;;29.80;50.40;;;;;;5072641;28;20025;-77
2021/07/12 11:39:36;;;;;;;;;;;29.80;50.60;;;;;;5072874;28;20016;-77
2021/07/12 11:42:14;;;;;;;3.85;2.63;;;29.80;50.90;;;;;;5072339;28;20397;-79
2021/07/12 11:45:06;;;;;;;5.05;2.67;;;29.70;50.90;;;;;;5072531;28;20047;-76
2021/07/12 11:47:41;;;;;;;3.53;2.47;;;29.60;50.50;;;;;;5073729;28;20111;-77
2021/07/12 11:50:15;;;;;;;4.93;2.78;;;29.50;50.90;;;;;;5072406;28;20480;-76
2021/07/12 11:52:45;;;;;;;4.60;3.00;;;29.50;50.90;;;;;;5073930;28;20070;-76
2021/07/12 11:55:14;;;;;;;6.93;2.70;;;29.50;51.00;;;;;;5073153;28;20017;-76
2021/07/12 11:57:40;;;;;;;6.43;3.33;;;29.50;50.80;;;;;;5073430;28;20024;-77
2021/07/12 12:00:22;;;;;;;4.72;3.00;;;29.40;50.70;;;;;;5072245;28;20059;-77
2021/07/12 12:02:56;;;;;;;4.68;3.33;;;29.40;50.50;;;;;;5073619;28;20064;-76
2021/07/12 12:05:22;;;;;;;4.20;2.75;;;29.40;50.70;;;;;;5072163;28;20033;-77
2021/07/12 12:07:48;;;;;;;4.63;2.97;;;29.40;50.90;;;;;;5073721;28;20352;-76
2021/07/12 12:10:23;;;;;;;5.13;3.40;;;29.40;51.20;;;;;;5073511;28;20372;-76
2021/07/12 12:13:02;;;;;;;6.65;3.10;;;29.30;51.30;;;;;;5073639;28;20372;-77
2021/07/12 12:15:34;;;;;;;4.60;3.28;;;29.30;51.10;;;;;;5073284;28;20029;-76
2021/07/12 12:18:11;;;;;;;4.57;3.15;;;29.30;51.00;;;;;;5073589;28;20074;-77
2021/07/12 12:20:46;;;;;;;4.30;3.08;;;29.30;51.00;;;;;;5072928;28;20074;-77
2021/07/12 12:23:17;;;;;;;6.43;4.43;;;29.30;51.20;;;;;;5073244;28;20026;-77
2021/07/12 12:25:46;;;;;;;6.68;3.58;;;29.20;51.20;;;;;;5073554;28;20033;-77
2021/07/12 12:28:27;;;;;;;5.20;3.67;;;29.10;51.30;;;;;;5073068;28;20024;-76
2021/07/12 12:30:55;;;;;;;4.60;2.97;;;29.10;51.50;;;;;;5073206;28;20052;-76
2021/07/12 12:33:30;;;;;;;6.53;4.10;;;28.90;51.50;;;;;;5073483;28;20025;-76
2021/07/12 12:36:02;;;;;;;5.32;3.45;;;28.90;51.60;;;;;;5073226;28;20074;-76
2021/07/12 12:38:28;;;;;;;4.43;3.38;;;28.80;52.50;;;;;;5072982;28;20376;-76
2021/07/12 12:41:03;;;;;;;4.90;3.28;;;28.80;52.00;;;;;;5059498;28;20033;-77
2021/07/12 12:43:30;;;;;;;6.93;4.45;;;28.70;52.00;;;;;;5051948;28;20032;-77
2021/07/12 12:46:00;;;;;;;5.47;3.72;;;28.70;52.00;;;;;;5051669;28;20059;-76